createdAt,value
2023-05-22T00:01:52.996Z,6.03
2023-05-22T00:04:22.068Z,6.72
2023-05-22T00:06:49.375Z,6.75
2023-05-22T00:09:16.502Z,7.15
2023-05-22T00:11:43.474Z,7.40
2023-05-22T00:14:10.545Z,9.52
2023-05-22T00:16:37.553Z,7.75
2023-05-22T00:19:04.533Z,7.90
2023-05-22T00:21:35.062Z,8.93
2023-05-22T00:24:02.367Z,7.97
2023-05-22T00:26:29.273Z,7.05
2023-05-22T00:28:56.141Z,8.25
2023-05-22T00:31:23.648Z,8.05
2023-05-22T00:33:50.574Z,7.03
2023-05-22T00:36:18.782Z,6.97
2023-05-22T00:38:46.362Z,7.38
2023-05-22T00:41:13.827Z,7.00
2023-05-22T00:43:40.725Z,7.55
2023-05-22T00:46:07.991Z,6.82
2023-05-22T00:48:35.096Z,6.82
2023-05-22T00:51:02.141Z,7.13
2023-05-22T00:53:30.102Z,8.65
2023-05-22T00:55:58.526Z,7.28
2023-05-22T00:58:27.618Z,6.53
2023-05-22T01:00:55.606Z,8.27
2023-05-22T01:03:27.034Z,7.35
2023-05-22T01:05:54.986Z,8.25
2023-05-22T01:08:22.027Z,6.45
2023-05-22T01:11:02.081Z,5.90
2023-05-22T01:13:41.768Z,5.60
2023-05-22T01:16:38.391Z,5.38
2023-05-22T01:19:26.063Z,6.57
2023-05-22T01:22:28.212Z,6.75
2023-05-22T01:25:21.223Z,7.10
2023-05-22T01:28:12.345Z,6.63
2023-05-22T01:30:47.328Z,7.55
2023-05-22T01:33:17.174Z,7.57
2023-05-22T01:35:51.671Z,8.18
2023-05-22T01:38:19.192Z,7.25
2023-05-22T01:40:47.724Z,7.70
2023-05-22T01:43:15.683Z,9.25
2023-05-22T01:45:42.585Z,7.50
2023-05-22T01:48:09.843Z,8.88
2023-05-22T01:50:36.874Z,8.07
2023-05-22T01:53:22.825Z,7.75
2023-05-22T01:56:16.656Z,6.65
2023-05-22T01:58:52.812Z,6.03
2023-05-22T02:01:21.276Z,7.35
2023-05-22T02:03:51.809Z,7.30
2023-05-22T02:06:19.283Z,8.13
2023-05-22T02:08:46.216Z,7.82
2023-05-22T02:11:15.184Z,8.20
2023-05-22T02:13:42.294Z,6.93
2023-05-22T02:16:09.980Z,7.18
2023-05-22T02:18:36.800Z,7.50
2023-05-22T02:21:05.742Z,7.25
2023-05-22T02:23:32.566Z,7.07
2023-05-22T02:25:59.465Z,6.18
2023-05-22T02:28:27.158Z,7.30
2023-05-22T02:30:53.992Z,6.22
2023-05-22T02:33:21.473Z,5.82
2023-05-22T02:35:49.984Z,6.03
2023-05-22T02:38:16.853Z,5.63
2023-05-22T02:40:44.804Z,5.95
2023-05-22T02:43:11.610Z,5.75
2023-05-22T02:45:38.558Z,7.30
2023-05-22T02:48:06.489Z,6.38
2023-05-22T02:50:33.412Z,6.10
2023-05-22T02:53:00.306Z,5.80
2023-05-22T02:55:27.158Z,5.57
2023-05-22T02:57:53.956Z,7.05
2023-05-22T03:00:22.381Z,7.75
2023-05-22T03:02:49.540Z,7.65
2023-05-22T03:05:17.894Z,5.38
2023-05-22T03:07:48.129Z,5.80
2023-05-22T03:10:15.425Z,8.85
2023-05-22T03:12:42.343Z,5.95
2023-05-22T03:15:11.043Z,6.13
2023-05-22T03:17:39.380Z,7.63
2023-05-22T03:20:08.584Z,7.28
2023-05-22T03:22:35.533Z,7.53
2023-05-22T03:25:02.402Z,7.60
2023-05-22T03:27:29.796Z,8.57
2023-05-22T03:29:56.640Z,7.45
2023-05-22T03:32:23.926Z,7.38
2023-05-22T03:34:50.908Z,7.43
2023-05-22T03:37:17.977Z,8.60
2023-05-22T03:39:45.019Z,6.82
2023-05-22T03:42:20.774Z,6.97
2023-05-22T03:44:49.332Z,6.32
2023-05-22T03:47:16.653Z,6.60
2023-05-22T03:49:43.536Z,6.50
2023-05-22T03:52:10.983Z,7.45
2023-05-22T03:54:37.972Z,6.75
2023-05-22T03:57:05.775Z,6.53
2023-05-22T03:59:32.586Z,5.65
2023-05-22T04:02:01.270Z,7.32
2023-05-22T04:04:28.891Z,6.65
2023-05-22T04:06:58.094Z,6.35
2023-05-22T04:09:31.521Z,5.55
2023-05-22T04:11:58.787Z,5.85
2023-05-22T04:14:26.226Z,6.35
2023-05-22T04:16:53.321Z,5.97
2023-05-22T04:19:20.820Z,8.20
2023-05-22T04:21:48.696Z,6.30
2023-05-22T04:24:18.306Z,9.98
2023-05-22T04:26:45.138Z,10.43
2023-05-22T04:29:14.453Z,6.85
2023-05-22T04:31:42.096Z,7.90
2023-05-22T04:34:13.114Z,7.43
2023-05-22T04:36:40.008Z,7.95
2023-05-22T04:39:06.939Z,8.25
2023-05-22T04:41:34.321Z,7.07
2023-05-22T04:44:04.034Z,8.07
2023-05-22T04:46:31.682Z,10.38
2023-05-22T04:49:02.189Z,6.35
2023-05-22T04:51:31.200Z,5.80
2023-05-22T04:53:58.510Z,6.45
2023-05-22T04:56:35.626Z,5.43
2023-05-22T04:59:04.874Z,6.40
2023-05-22T05:01:33.610Z,6.40
2023-05-22T05:04:00.863Z,6.72
2023-05-22T05:06:27.815Z,7.45
2023-05-22T05:08:55.059Z,7.40
2023-05-22T05:11:21.948Z,6.93
2023-05-22T05:13:49.093Z,7.50
2023-05-22T05:16:16.107Z,7.07
2023-05-22T05:18:43.404Z,11.05
2023-05-22T05:21:11.412Z,6.03
2023-05-22T05:23:38.254Z,6.90
2023-05-22T05:26:05.137Z,5.57
2023-05-22T05:28:32.243Z,6.18
2023-05-22T05:31:00.587Z,7.43
2023-05-22T05:33:42.605Z,7.35
2023-05-22T05:36:27.456Z,5.97
2023-05-22T05:38:56.613Z,5.10
2023-05-22T05:41:23.591Z,4.90
2023-05-22T05:43:59.887Z,7.93
2023-05-22T05:46:30.020Z,6.15
2023-05-22T05:48:58.126Z,6.45
2023-05-22T05:51:25.093Z,9.68
2023-05-22T05:53:52.799Z,8.77
2023-05-22T05:56:21.256Z,6.95
2023-05-22T05:58:48.547Z,7.35
2023-05-22T06:01:35.298Z,10.10
2023-05-22T06:04:04.191Z,8.23
2023-05-22T06:06:36.347Z,8.00
2023-05-22T06:09:15.527Z,7.32
2023-05-22T06:12:01.518Z,8.80
2023-05-22T06:14:28.821Z,7.65
2023-05-22T06:16:56.173Z,9.00
2023-05-22T06:19:23.422Z,8.75
2023-05-22T06:21:52.039Z,6.00
2023-05-22T06:24:20.265Z,6.53
2023-05-22T06:26:47.150Z,5.88
2023-05-22T06:29:14.846Z,6.10
2023-05-22T06:31:41.785Z,5.80
2023-05-22T06:34:09.236Z,7.45
2023-05-22T06:36:36.183Z,6.00
2023-05-22T06:39:03.476Z,6.15
2023-05-22T06:41:59.084Z,6.22
2023-05-22T06:44:26.009Z,5.45
2023-05-22T06:46:55.666Z,6.07
2023-05-22T06:49:24.816Z,7.28
2023-05-22T06:51:54.039Z,6.70
2023-05-22T06:54:21.503Z,7.68
2023-05-22T06:56:51.606Z,11.18
2023-05-22T06:59:18.584Z,11.30
2023-05-22T07:02:04.230Z,8.20
2023-05-22T07:05:00.441Z,7.85
2023-05-22T07:07:36.523Z,8.88
2023-05-22T07:10:03.758Z,7.15
2023-05-22T07:12:30.727Z,9.60
2023-05-22T07:15:00.010Z,8.38
2023-05-22T07:17:27.358Z,7.97
2023-05-22T07:19:55.958Z,8.23
2023-05-22T07:22:22.915Z,9.85
2023-05-22T07:24:49.821Z,7.20
2023-05-22T07:27:18.446Z,9.77
2023-05-22T07:29:47.763Z,6.72
2023-05-22T07:32:14.704Z,6.85
2023-05-22T07:34:42.749Z,7.03
2023-05-22T07:37:14.151Z,10.02
2023-05-22T07:39:42.489Z,10.45
2023-05-22T07:42:09.913Z,9.93
2023-05-22T07:44:43.950Z,8.95
2023-05-22T07:47:10.885Z,10.82
2023-05-22T07:49:38.920Z,9.68
2023-05-22T07:52:06.679Z,11.23
2023-05-22T07:54:33.518Z,11.27
2023-05-22T07:57:03.813Z,8.05
2023-05-22T07:59:37.598Z,6.80
2023-05-22T08:02:04.977Z,9.48
2023-05-22T08:04:32.016Z,10.50
2023-05-22T08:06:59.291Z,7.72
2023-05-22T08:09:26.178Z,7.97
2023-05-22T08:11:53.128Z,8.63
2023-05-22T08:14:21.697Z,8.48
2023-05-22T08:16:48.810Z,7.68
2023-05-22T08:19:16.006Z,9.05
2023-05-22T08:21:42.900Z,11.25
2023-05-22T08:24:09.723Z,8.32
2023-05-22T08:26:36.873Z,8.60
2023-05-22T08:29:03.736Z,10.43
2023-05-22T08:31:31.837Z,8.90
2023-05-22T08:34:02.581Z,7.55
2023-05-22T08:36:31.687Z,8.52
2023-05-22T08:38:59.598Z,7.95
2023-05-22T08:41:27.412Z,6.68
2023-05-22T08:43:55.246Z,8.00
2023-05-22T08:46:26.493Z,7.20
2023-05-22T08:48:57.487Z,7.25
2023-05-22T08:51:28.739Z,7.88
2023-05-22T08:53:57.622Z,8.88
2023-05-22T08:56:27.076Z,8.75
2023-05-22T08:58:57.426Z,9.05
2023-05-22T09:01:24.768Z,7.47
2023-05-22T09:03:52.191Z,7.47
2023-05-22T09:06:19.584Z,7.03
2023-05-22T09:08:46.487Z,6.95
2023-05-22T09:11:13.402Z,8.27
2023-05-22T09:13:41.494Z,7.90
2023-05-22T09:16:12.838Z,7.57
2023-05-22T09:18:41.488Z,8.90
2023-05-22T09:21:21.675Z,7.57
2023-05-22T09:24:00.403Z,7.40
2023-05-22T09:26:29.350Z,6.63
2023-05-22T09:28:57.277Z,9.77
2023-05-22T09:31:24.265Z,6.78
2023-05-22T09:33:51.199Z,7.50
2023-05-22T09:36:18.158Z,7.05
2023-05-22T09:38:45.474Z,6.78
2023-05-22T09:41:12.272Z,6.80
2023-05-22T09:43:39.134Z,6.88
2023-05-22T09:46:06.048Z,6.32
2023-05-22T09:48:36.701Z,7.65
2023-05-22T09:51:05.171Z,6.72
2023-05-22T09:53:33.380Z,6.68
2023-05-22T09:56:01.699Z,6.78
2023-05-22T09:58:31.370Z,6.55
2023-05-22T10:00:59.323Z,6.55
2023-05-22T10:03:27.668Z,7.00
2023-05-22T10:05:57.257Z,7.75
2023-05-22T10:08:34.474Z,7.75
2023-05-22T10:11:01.482Z,6.57
2023-05-22T10:13:29.225Z,6.68
2023-05-22T10:15:57.137Z,7.18
2023-05-22T10:18:25.478Z,8.68
2023-05-22T10:20:52.685Z,6.47
2023-05-22T10:23:19.992Z,7.03
2023-05-22T10:25:46.942Z,6.53
2023-05-22T10:28:21.728Z,6.43
2023-05-22T10:31:06.584Z,7.13
2023-05-22T10:34:08.287Z,6.13
2023-05-22T10:37:25.656Z,5.80
2023-05-22T10:40:05.256Z,7.00
2023-05-22T10:42:32.606Z,5.45
2023-05-22T10:45:01.128Z,5.38
2023-05-22T10:47:28.437Z,8.65
2023-05-22T10:50:10.028Z,6.70
2023-05-22T10:52:37.904Z,6.43
2023-05-22T10:55:09.291Z,5.88
2023-05-22T10:57:39.232Z,5.60
2023-05-22T11:00:07.922Z,5.93
2023-05-22T11:02:42.490Z,5.78
2023-05-22T11:05:23.789Z,8.63
2023-05-22T11:07:51.036Z,8.60
2023-05-22T11:10:47.961Z,5.80
2023-05-22T11:13:14.967Z,6.40
2023-05-22T11:15:45.809Z,6.00
2023-05-22T11:18:14.506Z,5.75
2023-05-22T11:20:41.879Z,5.50
2023-05-22T11:23:10.909Z,5.60
2023-05-22T11:25:40.334Z,7.82
2023-05-22T11:28:08.052Z,6.00
2023-05-22T11:30:35.322Z,6.22
2023-05-22T11:33:02.965Z,6.60
2023-05-22T11:35:30.662Z,6.35
2023-05-22T11:37:58.793Z,6.03
2023-05-22T11:40:29.352Z,5.40
2023-05-22T11:42:56.869Z,5.75
2023-05-22T11:45:23.980Z,5.38
2023-05-22T11:47:51.316Z,5.70
2023-05-22T11:50:29.158Z,6.60
2023-05-22T11:53:05.294Z,6.63
2023-05-22T11:55:33.569Z,8.00
2023-05-22T11:58:02.396Z,6.18
2023-05-22T12:00:31.063Z,7.00
2023-05-22T12:02:58.592Z,6.20
2023-05-22T12:05:25.653Z,6.68
2023-05-22T12:07:53.135Z,6.20
2023-05-22T12:10:20.082Z,6.07
2023-05-22T12:12:48.123Z,6.05
2023-05-22T12:15:20.302Z,6.35
2023-05-22T12:17:47.279Z,5.32
2023-05-22T12:20:14.572Z,6.78
2023-05-22T12:22:43.045Z,7.15
2023-05-22T12:25:16.771Z,6.55
2023-05-22T12:27:45.533Z,6.38
2023-05-22T12:30:16.561Z,6.32
2023-05-22T12:32:50.768Z,9.55
2023-05-22T12:37:49.566Z,6.70
2023-05-22T12:40:16.835Z,5.85
2023-05-22T12:42:44.974Z,5.90
2023-05-22T12:45:13.350Z,6.50
2023-05-22T12:47:40.356Z,5.75
2023-05-22T12:50:08.073Z,6.35
2023-05-22T12:52:35.907Z,6.35
2023-05-22T12:55:02.812Z,6.85
2023-05-22T12:57:29.638Z,6.85
2023-05-22T12:59:56.807Z,9.40
2023-05-22T13:02:23.696Z,6.90
2023-05-22T13:04:50.612Z,6.32
2023-05-22T13:07:17.504Z,6.60
2023-05-22T13:09:44.325Z,5.00
2023-05-22T13:12:11.228Z,4.93
2023-05-22T13:14:40.200Z,5.95
2023-05-22T13:17:07.045Z,6.15
2023-05-22T13:19:34.622Z,5.65
2023-05-22T13:22:01.602Z,5.68
2023-05-22T13:24:28.417Z,5.82
2023-05-22T13:26:55.322Z,6.10
2023-05-22T13:29:22.153Z,8.10
2023-05-22T13:31:48.958Z,6.63
2023-05-22T13:34:16.075Z,7.25
2023-05-22T13:36:43.120Z,6.28
2023-05-22T13:39:09.971Z,6.47
2023-05-22T13:41:36.841Z,6.07
2023-05-22T13:44:03.677Z,6.00
2023-05-22T13:46:30.755Z,5.82
2023-05-22T13:48:57.817Z,7.60
2023-05-22T13:51:24.946Z,6.13
2023-05-22T13:53:51.783Z,6.25
2023-05-22T13:56:18.669Z,6.75
2023-05-22T13:58:45.480Z,6.60
2023-05-22T14:01:12.454Z,6.78
2023-05-22T14:03:39.384Z,8.70
2023-05-22T14:06:06.569Z,7.60
2023-05-22T14:08:33.448Z,7.07
2023-05-22T14:11:01.017Z,6.32
2023-05-22T14:13:27.910Z,6.82
2023-05-22T14:15:54.866Z,6.60
2023-05-22T14:18:21.748Z,7.88
2023-05-22T14:20:48.757Z,7.80
2023-05-22T14:23:16.054Z,6.28
2023-05-22T14:25:43.293Z,7.43
2023-05-22T14:28:11.388Z,7.82
2023-05-22T14:30:38.960Z,7.13
2023-05-22T14:33:06.653Z,5.47
2023-05-22T14:35:33.895Z,5.95
2023-05-22T14:38:01.414Z,7.32
2023-05-22T14:40:28.381Z,6.88
2023-05-22T14:42:55.319Z,6.07
2023-05-22T14:45:22.252Z,6.13
2023-05-22T14:47:49.323Z,5.88
2023-05-22T14:50:19.650Z,5.80
2023-05-22T14:52:48.065Z,5.75
2023-05-22T14:55:15.256Z,5.75
2023-05-22T14:57:42.183Z,5.78
2023-05-22T15:00:10.810Z,5.85
2023-05-22T15:02:37.730Z,5.68
2023-05-22T15:05:05.522Z,5.38
2023-05-22T15:07:43.074Z,5.72
2023-05-22T15:10:11.462Z,5.10
2023-05-22T15:12:38.325Z,5.07
2023-05-22T15:15:05.877Z,5.32
2023-05-22T15:17:32.856Z,5.60
2023-05-22T15:19:59.778Z,5.07
2023-05-22T15:22:26.601Z,5.40
2023-05-22T15:25:12.152Z,5.88
2023-05-22T15:27:39.487Z,5.47
2023-05-22T15:30:07.155Z,5.40
2023-05-22T15:32:34.187Z,5.85
2023-05-22T15:35:01.122Z,5.13
2023-05-22T15:37:32.451Z,5.10
2023-05-22T15:40:01.325Z,5.10
2023-05-22T15:42:28.481Z,6.20
2023-05-22T15:44:55.737Z,5.82
2023-05-22T15:47:22.696Z,5.60
2023-05-22T15:49:49.730Z,5.60
2023-05-22T15:52:16.643Z,5.50
2023-05-22T15:54:43.523Z,5.72
2023-05-22T15:57:10.463Z,5.43
2023-05-22T15:59:37.356Z,5.05
2023-05-22T16:02:04.491Z,4.82
2023-05-22T16:04:31.497Z,5.13
2023-05-22T16:06:58.304Z,5.40
2023-05-22T16:09:25.160Z,5.18
2023-05-22T16:11:51.954Z,7.38
2023-05-22T16:14:18.775Z,6.45
2023-05-22T16:16:45.681Z,6.00
2023-05-22T16:19:12.566Z,6.07
2023-05-22T16:21:39.380Z,6.00
2023-05-22T16:24:07.095Z,6.40
2023-05-22T16:26:34.209Z,7.38
2023-05-22T16:29:01.129Z,10.15
2023-05-22T16:31:28.698Z,9.93
2023-05-22T16:33:55.772Z,8.68
2023-05-22T16:36:23.006Z,10.60
2023-05-22T16:38:51.118Z,8.25
2023-05-22T16:41:18.036Z,9.32
2023-05-22T16:43:45.424Z,8.10
2023-05-22T16:46:12.295Z,7.28
2023-05-22T16:48:39.387Z,7.38
2023-05-22T16:51:06.319Z,8.70
2023-05-22T16:53:33.168Z,12.98
2023-05-22T16:56:00.048Z,9.75
2023-05-22T16:58:26.913Z,10.43
2023-05-22T17:00:54.226Z,10.10
2023-05-22T17:03:21.396Z,12.07
2023-05-22T17:05:49.031Z,6.95
2023-05-22T17:08:16.076Z,5.38
2023-05-22T17:10:42.961Z,6.22
2023-05-22T17:13:11.991Z,4.05
2023-05-22T17:15:39.042Z,4.78
2023-05-22T17:18:06.343Z,3.60
2023-05-22T17:20:34.128Z,3.00
2023-05-22T17:23:01.060Z,3.70
2023-05-22T17:25:28.290Z,3.97
2023-05-22T17:27:55.104Z,3.83
2023-05-22T17:30:21.944Z,3.95
2023-05-22T17:32:53.240Z,5.20
2023-05-22T17:35:20.244Z,4.18
2023-05-22T17:37:47.056Z,5.00
2023-05-22T17:40:13.985Z,3.63
2023-05-22T17:42:40.825Z,3.97
2023-05-22T17:45:08.330Z,4.13
2023-05-22T17:47:35.720Z,4.22
2023-05-22T17:50:02.567Z,4.15
2023-05-22T17:52:29.329Z,5.85
2023-05-22T17:54:56.116Z,3.95
2023-05-22T17:57:22.940Z,4.65
2023-05-22T17:59:50.106Z,4.00
2023-05-22T18:02:17.181Z,4.72
2023-05-22T18:04:44.297Z,4.82
2023-05-22T18:07:11.140Z,4.97
2023-05-22T18:09:37.964Z,4.80
2023-05-22T18:12:05.055Z,4.90
2023-05-22T18:14:31.954Z,4.28
2023-05-22T18:16:58.819Z,4.22
2023-05-22T18:19:25.721Z,4.50
2023-05-22T18:21:53.739Z,4.82
2023-05-22T18:24:26.131Z,4.18
2023-05-22T18:26:54.672Z,3.67
2023-05-22T18:29:22.241Z,3.85
2023-05-22T18:31:49.132Z,4.78
2023-05-22T18:34:16.167Z,4.15
2023-05-22T18:36:43.273Z,4.30
2023-05-22T18:39:10.995Z,3.78
2023-05-22T18:41:38.128Z,3.75
2023-05-22T18:44:05.069Z,4.30
2023-05-22T18:46:32.356Z,6.88
2023-05-22T18:48:59.466Z,4.78
2023-05-22T18:51:27.286Z,4.43
2023-05-22T18:53:54.160Z,5.28
2023-05-22T18:56:21.392Z,5.35
2023-05-22T18:58:48.309Z,4.30
2023-05-22T19:01:16.874Z,5.82
2023-05-22T19:03:44.171Z,4.80
2023-05-22T19:06:11.045Z,7.40
2023-05-22T19:08:37.906Z,4.60
2023-05-22T19:11:04.737Z,3.85
2023-05-22T19:13:31.638Z,4.57
2023-05-22T19:15:59.312Z,6.13
2023-05-22T19:18:27.429Z,4.88
2023-05-22T19:20:54.514Z,5.32
2023-05-22T19:23:21.519Z,4.60
2023-05-22T19:25:49.131Z,6.25
2023-05-22T19:28:17.154Z,6.30
2023-05-22T19:30:44.509Z,5.72
2023-05-22T19:33:11.937Z,6.43
2023-05-22T19:35:38.858Z,7.18
2023-05-22T19:38:06.251Z,6.30
2023-05-22T19:40:33.175Z,6.90
2023-05-22T19:43:01.440Z,9.05
2023-05-22T19:45:28.614Z,6.45
2023-05-22T19:47:56.203Z,5.38
2023-05-22T19:50:23.625Z,5.85
2023-05-22T19:52:50.794Z,5.25
2023-05-22T19:55:17.683Z,6.63
2023-05-22T19:57:44.856Z,7.05
2023-05-22T20:00:13.345Z,4.38
2023-05-22T20:02:40.305Z,4.85
2023-05-22T20:05:13.092Z,6.85
2023-05-22T20:07:41.248Z,6.00
2023-05-22T20:10:10.130Z,5.93
2023-05-22T20:12:37.697Z,6.30
2023-05-22T20:15:06.909Z,4.97
2023-05-22T20:17:34.450Z,5.63
2023-05-22T20:20:01.347Z,4.25
2023-05-22T20:22:28.377Z,3.50
2023-05-22T20:24:55.849Z,3.80
2023-05-22T20:27:22.702Z,5.47
2023-05-22T20:29:52.542Z,4.28
2023-05-22T20:32:19.383Z,3.40
2023-05-22T20:34:46.470Z,3.45
2023-05-22T20:37:13.656Z,3.60
2023-05-22T20:39:44.450Z,3.22
2023-05-22T20:42:13.040Z,3.17
2023-05-22T20:44:41.234Z,4.55
2023-05-22T20:47:09.530Z,3.80
2023-05-22T20:49:36.344Z,3.38
2023-05-22T20:52:04.565Z,4.00
2023-05-22T20:54:34.271Z,5.72
2023-05-22T20:57:01.925Z,3.72
2023-05-22T20:59:29.107Z,4.70
2023-05-22T21:01:57.784Z,4.53
2023-05-22T21:04:26.546Z,4.53
2023-05-22T21:06:53.440Z,5.80
2023-05-22T21:09:20.357Z,10.35
2023-05-22T21:11:47.308Z,13.40
2023-05-22T21:14:14.503Z,11.68
2023-05-22T21:16:41.497Z,8.98
2023-05-22T21:19:08.384Z,8.25
2023-05-22T21:21:41.421Z,10.00
2023-05-22T21:24:12.238Z,11.65
2023-05-22T21:26:39.098Z,8.77
2023-05-22T21:29:06.201Z,10.02
2023-05-22T21:31:35.339Z,8.52
2023-05-22T21:34:02.701Z,10.43
2023-05-22T21:36:29.549Z,10.55
2023-05-22T21:39:00.267Z,9.57
2023-05-22T21:41:30.054Z,9.27
2023-05-22T21:43:57.623Z,11.20
2023-05-22T21:46:24.888Z,11.02
2023-05-22T21:48:53.584Z,12.95
2023-05-22T21:51:20.458Z,16.05
2023-05-22T21:53:47.611Z,13.57
2023-05-22T21:56:14.462Z,12.95
2023-05-22T21:58:41.274Z,14.80
2023-05-22T22:01:08.169Z,16.55
2023-05-22T22:03:35.186Z,12.60
2023-05-22T22:06:02.083Z,14.60
2023-05-22T22:08:29.439Z,12.48
2023-05-22T22:10:58.282Z,15.02
2023-05-22T22:13:25.181Z,15.50
2023-05-22T22:15:53.427Z,17.05
2023-05-22T22:18:20.526Z,19.40
2023-05-22T22:20:50.200Z,18.48
2023-05-22T22:23:17.436Z,17.92
2023-05-22T22:25:44.381Z,14.95
2023-05-22T22:28:11.435Z,16.42
2023-05-22T22:30:38.455Z,15.43
2023-05-22T22:33:05.611Z,18.38
2023-05-22T22:35:32.520Z,19.38
2023-05-22T22:37:59.319Z,16.30
2023-05-22T22:40:26.956Z,18.55
2023-05-22T22:42:53.941Z,17.33
2023-05-22T22:45:20.836Z,17.42
2023-05-22T22:47:48.310Z,17.38
2023-05-22T22:50:15.222Z,21.08
2023-05-22T22:52:45.441Z,20.55
2023-05-22T22:55:13.451Z,17.65
2023-05-22T22:57:43.356Z,21.90
2023-05-22T23:00:13.288Z,18.05
2023-05-22T23:02:40.583Z,20.02
2023-05-22T23:05:08.015Z,17.50
2023-05-22T23:07:34.957Z,16.23
2023-05-22T23:10:01.895Z,17.63
2023-05-22T23:12:28.777Z,20.83
2023-05-22T23:14:55.764Z,19.02
2023-05-22T23:17:22.586Z,19.52
2023-05-22T23:19:49.562Z,19.83
2023-05-22T23:22:16.431Z,20.45
2023-05-22T23:24:43.246Z,17.20
2023-05-22T23:27:10.098Z,17.80
2023-05-22T23:29:36.916Z,19.30
2023-05-22T23:32:04.039Z,20.33
2023-05-22T23:34:30.904Z,18.98
2023-05-22T23:36:57.706Z,19.00
2023-05-22T23:39:24.574Z,16.40
2023-05-22T23:41:54.020Z,21.42
2023-05-22T23:44:21.689Z,16.85
2023-05-22T23:46:50.001Z,21.08
2023-05-22T23:49:16.915Z,20.77
2023-05-22T23:51:43.763Z,25.17
2023-05-22T23:54:11.312Z,27.02
2023-05-22T23:56:38.166Z,28.17
2023-05-22T23:59:05.100Z,20.55
